sensor_id;sensor_type;location;lat;lon;timestamp;P1;durP1;ratioP1;P2;durP2;ratioP2
44636;SDS011;30343;0.000;0.000;2022-07-29T00:01:13;4.40;;;1.73;;
44636;SDS011;30343;0.000;0.000;2022-07-29T00:03:59;4.20;;;1.70;;
44636;SDS011;30343;0.000;0.000;2022-07-29T00:06:43;3.05;;;1.80;;
44636;SDS011;30343;0.000;0.000;2022-07-29T00:09:33;4.93;;;1.83;;
44636;SDS011;30343;0.000;0.000;2022-07-29T00:15:04;6.88;;;2.05;;
44636;SDS011;30343;0.000;0.000;2022-07-29T00:17:48;6.95;;;2.08;;
44636;SDS011;30343;0.000;0.000;2022-07-29T00:20:38;2.28;;;1.73;;
44636;SDS011;30343;0.000;0.000;2022-07-29T00:23:25;9.95;;;2.20;;
44636;SDS011;30343;0.000;0.000;2022-07-29T00:26:09;3.33;;;1.95;;
44636;SDS011;30343;0.000;0.000;2022-07-29T00:28:53;5.47;;;2.60;;
44636;SDS011;30343;0.000;0.000;2022-07-29T00:31:40;2.08;;;1.83;;
44636;SDS011;30343;0.000;0.000;2022-07-29T00:34:27;5.35;;;2.15;;
44636;SDS011;30343;0.000;0.000;2022-07-29T00:37:30;5.22;;;1.77;;
44636;SDS011;30343;0.000;0.000;2022-07-29T00:40:19;6.68;;;2.25;;
44636;SDS011;30343;0.000;0.000;2022-07-29T00:43:04;3.75;;;1.77;;
44636;SDS011;30343;0.000;0.000;2022-07-29T00:45:48;6.13;;;1.70;;
44636;SDS011;30343;0.000;0.000;2022-07-29T00:48:37;4.85;;;1.92;;
44636;SDS011;30343;0.000;0.000;2022-07-29T00:51:22;6.45;;;2.08;;
44636;SDS011;30343;0.000;0.000;2022-07-29T00:54:06;6.22;;;2.35;;
44636;SDS011;30343;0.000;0.000;2022-07-29T00:56:55;3.88;;;2.05;;
44636;SDS011;30343;0.000;0.000;2022-07-29T00:59:42;3.80;;;2.08;;
44636;SDS011;30343;0.000;0.000;2022-07-29T01:02:28;6.82;;;2.63;;
44636;SDS011;30343;0.000;0.000;2022-07-29T01:05:17;4.20;;;2.30;;
44636;SDS011;30343;0.000;0.000;2022-07-29T01:08:03;4.95;;;2.15;;
44636;SDS011;30343;0.000;0.000;2022-07-29T01:10:50;5.28;;;2.08;;
44636;SDS011;30343;0.000;0.000;2022-07-29T01:13:35;3.50;;;1.80;;
44636;SDS011;30343;0.000;0.000;2022-07-29T01:16:31;14.55;;;2.63;;
44636;SDS011;30343;0.000;0.000;2022-07-29T01:32:33;3.60;;;2.33;;
44636;SDS011;30343;0.000;0.000;2022-07-29T01:37:43;5.72;;;2.10;;
44636;SDS011;30343;0.000;0.000;2022-07-29T01:40:32;4.88;;;2.50;;
44636;SDS011;30343;0.000;0.000;2022-07-29T01:43:21;4.25;;;2.10;;
44636;SDS011;30343;0.000;0.000;2022-07-29T01:46:25;5.80;;;2.03;;
44636;SDS011;30343;0.000;0.000;2022-07-29T01:49:24;2.53;;;1.42;;
44636;SDS011;30343;0.000;0.000;2022-07-29T01:52:23;4.18;;;1.92;;
44636;SDS011;30343;0.000;0.000;2022-07-29T01:55:14;4.78;;;2.13;;
44636;SDS011;30343;0.000;0.000;2022-07-29T01:58:01;5.13;;;1.98;;
44636;SDS011;30343;0.000;0.000;2022-07-29T02:00:51;7.90;;;2.13;;
44636;SDS011;30343;0.000;0.000;2022-07-29T02:03:37;5.75;;;2.03;;
44636;SDS011;30343;0.000;0.000;2022-07-29T02:06:23;3.85;;;2.00;;
44636;SDS011;30343;0.000;0.000;2022-07-29T02:09:12;3.83;;;2.20;;
44636;SDS011;30343;0.000;0.000;2022-07-29T02:12:02;4.95;;;2.00;;
44636;SDS011;30343;0.000;0.000;2022-07-29T02:14:49;4.25;;;2.03;;
44636;SDS011;30343;0.000;0.000;2022-07-29T02:18:02;4.30;;;2.08;;
44636;SDS011;30343;0.000;0.000;2022-07-29T02:20:52;6.93;;;2.10;;
44636;SDS011;30343;0.000;0.000;2022-07-29T02:23:38;6.57;;;2.05;;
44636;SDS011;30343;0.000;0.000;2022-07-29T02:26:26;4.40;;;2.20;;
44636;SDS011;30343;0.000;0.000;2022-07-29T02:29:16;4.18;;;2.40;;
44636;SDS011;30343;0.000;0.000;2022-07-29T02:32:03;8.10;;;2.25;;
44636;SDS011;30343;0.000;0.000;2022-07-29T02:34:49;7.30;;;2.20;;
44636;SDS011;30343;0.000;0.000;2022-07-29T02:37:35;7.25;;;2.35;;
44636;SDS011;30343;0.000;0.000;2022-07-29T02:40:22;5.57;;;2.10;;
44636;SDS011;30343;0.000;0.000;2022-07-29T02:43:07;3.15;;;2.00;;
44636;SDS011;30343;0.000;0.000;2022-07-29T02:45:56;3.70;;;2.08;;
44636;SDS011;30343;0.000;0.000;2022-07-29T02:48:51;4.97;;;2.15;;
44636;SDS011;30343;0.000;0.000;2022-07-29T02:51:46;2.42;;;1.70;;
44636;SDS011;30343;0.000;0.000;2022-07-29T02:55:02;8.07;;;2.15;;
44636;SDS011;30343;0.000;0.000;2022-07-29T02:58:09;12.05;;;3.15;;
44636;SDS011;30343;0.000;0.000;2022-07-29T03:01:11;7.10;;;2.55;;
44636;SDS011;30343;0.000;0.000;2022-07-29T03:04:03;5.50;;;2.80;;
44636;SDS011;30343;0.000;0.000;2022-07-29T03:06:48;8.30;;;2.28;;
44636;SDS011;30343;0.000;0.000;2022-07-29T03:09:34;3.80;;;2.10;;
44636;SDS011;30343;0.000;0.000;2022-07-29T03:12:22;4.22;;;1.73;;
44636;SDS011;30343;0.000;0.000;2022-07-29T03:15:07;4.60;;;1.88;;
44636;SDS011;30343;0.000;0.000;2022-07-29T03:17:52;4.22;;;2.33;;
44636;SDS011;30343;0.000;0.000;2022-07-29T03:20:39;12.60;;;2.25;;
44636;SDS011;30343;0.000;0.000;2022-07-29T03:23:27;5.30;;;2.20;;
44636;SDS011;30343;0.000;0.000;2022-07-29T03:26:13;5.05;;;1.98;;
44636;SDS011;30343;0.000;0.000;2022-07-29T03:28:57;5.43;;;2.30;;
44636;SDS011;30343;0.000;0.000;2022-07-29T03:31:44;3.50;;;2.10;;
44636;SDS011;30343;0.000;0.000;2022-07-29T03:34:33;2.95;;;1.88;;
44636;SDS011;30343;0.000;0.000;2022-07-29T03:37:26;3.55;;;2.28;;
44636;SDS011;30343;0.000;0.000;2022-07-29T03:40:11;5.43;;;2.42;;
44636;SDS011;30343;0.000;0.000;2022-07-29T03:43:00;3.40;;;1.92;;
44636;SDS011;30343;0.000;0.000;2022-07-29T03:45:47;5.75;;;2.83;;
44636;SDS011;30343;0.000;0.000;2022-07-29T03:48:36;3.28;;;2.05;;
44636;SDS011;30343;0.000;0.000;2022-07-29T03:51:26;4.53;;;2.55;;
44636;SDS011;30343;0.000;0.000;2022-07-29T03:54:10;4.70;;;2.22;;
44636;SDS011;30343;0.000;0.000;2022-07-29T03:56:54;13.27;;;3.08;;
44636;SDS011;30343;0.000;0.000;2022-07-29T03:59:43;3.38;;;2.00;;
44636;SDS011;30343;0.000;0.000;2022-07-29T04:02:27;5.65;;;2.35;;
44636;SDS011;30343;0.000;0.000;2022-07-29T04:05:11;6.00;;;2.17;;
44636;SDS011;30343;0.000;0.000;2022-07-29T04:07:58;3.03;;;2.13;;
44636;SDS011;30343;0.000;0.000;2022-07-29T04:10:45;4.53;;;2.40;;
44636;SDS011;30343;0.000;0.000;2022-07-29T04:13:31;4.45;;;2.40;;
44636;SDS011;30343;0.000;0.000;2022-07-29T04:16:21;4.70;;;3.00;;
44636;SDS011;30343;0.000;0.000;2022-07-29T04:19:05;7.38;;;2.70;;
44636;SDS011;30343;0.000;0.000;2022-07-29T04:21:48;6.50;;;2.50;;
44636;SDS011;30343;0.000;0.000;2022-07-29T04:24:32;9.02;;;2.55;;
44636;SDS011;30343;0.000;0.000;2022-07-29T04:27:18;5.07;;;2.30;;
44636;SDS011;30343;0.000;0.000;2022-07-29T04:30:02;6.78;;;3.13;;
44636;SDS011;30343;0.000;0.000;2022-07-29T04:32:46;7.40;;;2.58;;
44636;SDS011;30343;0.000;0.000;2022-07-29T04:35:30;6.28;;;2.40;;
44636;SDS011;30343;0.000;0.000;2022-07-29T04:38:21;4.45;;;2.28;;
44636;SDS011;30343;0.000;0.000;2022-07-29T04:41:06;7.18;;;2.92;;
44636;SDS011;30343;0.000;0.000;2022-07-29T04:43:56;6.22;;;2.75;;
44636;SDS011;30343;0.000;0.000;2022-07-29T04:46:39;9.35;;;2.47;;
44636;SDS011;30343;0.000;0.000;2022-07-29T04:49:26;6.93;;;2.78;;
44636;SDS011;30343;0.000;0.000;2022-07-29T04:52:11;6.70;;;3.20;;
44636;SDS011;30343;0.000;0.000;2022-07-29T04:55:01;7.63;;;2.97;;
44636;SDS011;30343;0.000;0.000;2022-07-29T04:57:49;6.68;;;2.78;;
44636;SDS011;30343;0.000;0.000;2022-07-29T05:00:34;8.75;;;2.97;;
44636;SDS011;30343;0.000;0.000;2022-07-29T05:03:18;7.53;;;3.25;;
44636;SDS011;30343;0.000;0.000;2022-07-29T05:06:07;3.90;;;2.30;;
44636;SDS011;30343;0.000;0.000;2022-07-29T05:08:51;5.25;;;2.47;;
44636;SDS011;30343;0.000;0.000;2022-07-29T05:11:38;7.18;;;3.08;;
44636;SDS011;30343;0.000;0.000;2022-07-29T05:14:24;5.70;;;2.83;;
44636;SDS011;30343;0.000;0.000;2022-07-29T05:17:11;5.40;;;3.28;;
44636;SDS011;30343;0.000;0.000;2022-07-29T05:19:55;8.63;;;2.95;;
44636;SDS011;30343;0.000;0.000;2022-07-29T05:22:42;7.63;;;3.22;;
44636;SDS011;30343;0.000;0.000;2022-07-29T05:25:27;9.30;;;3.42;;
44636;SDS011;30343;0.000;0.000;2022-07-29T05:28:14;8.75;;;2.63;;
44636;SDS011;30343;0.000;0.000;2022-07-29T05:30:58;6.22;;;2.38;;
44636;SDS011;30343;0.000;0.000;2022-07-29T05:33:48;5.10;;;2.00;;
44636;SDS011;30343;0.000;0.000;2022-07-29T05:36:32;8.15;;;2.72;;
44636;SDS011;30343;0.000;0.000;2022-07-29T05:39:23;6.82;;;2.67;;
44636;SDS011;30343;0.000;0.000;2022-07-29T05:42:10;6.13;;;3.03;;
44636;SDS011;30343;0.000;0.000;2022-07-29T05:44:54;6.47;;;2.65;;
44636;SDS011;30343;0.000;0.000;2022-07-29T05:47:38;10.57;;;3.17;;
44636;SDS011;30343;0.000;0.000;2022-07-29T05:50:25;6.90;;;2.97;;
44636;SDS011;30343;0.000;0.000;2022-07-29T05:53:11;10.35;;;3.67;;
44636;SDS011;30343;0.000;0.000;2022-07-29T05:55:58;8.25;;;3.03;;
44636;SDS011;30343;0.000;0.000;2022-07-29T05:58:47;5.68;;;2.88;;
44636;SDS011;30343;0.000;0.000;2022-07-29T06:01:39;6.65;;;3.17;;
44636;SDS011;30343;0.000;0.000;2022-07-29T06:04:26;9.20;;;3.38;;
44636;SDS011;30343;0.000;0.000;2022-07-29T06:07:12;10.02;;;3.38;;
44636;SDS011;30343;0.000;0.000;2022-07-29T06:10:02;9.27;;;3.50;;
44636;SDS011;30343;0.000;0.000;2022-07-29T06:12:46;5.88;;;3.40;;
44636;SDS011;30343;0.000;0.000;2022-07-29T06:15:30;4.32;;;2.50;;
44636;SDS011;30343;0.000;0.000;2022-07-29T06:18:17;13.88;;;3.50;;
44636;SDS011;30343;0.000;0.000;2022-07-29T06:21:01;7.80;;;3.15;;
44636;SDS011;30343;0.000;0.000;2022-07-29T06:23:52;8.30;;;3.30;;
44636;SDS011;30343;0.000;0.000;2022-07-29T06:26:42;4.07;;;3.17;;
44636;SDS011;30343;0.000;0.000;2022-07-29T06:29:29;5.40;;;3.13;;
44636;SDS011;30343;0.000;0.000;2022-07-29T06:32:47;7.28;;;3.42;;
44636;SDS011;30343;0.000;0.000;2022-07-29T06:35:33;5.93;;;2.95;;
44636;SDS011;30343;0.000;0.000;2022-07-29T06:38:18;5.65;;;3.20;;
44636;SDS011;30343;0.000;0.000;2022-07-29T06:41:02;6.43;;;3.60;;
44636;SDS011;30343;0.000;0.000;2022-07-29T06:43:51;10.27;;;3.50;;
44636;SDS011;30343;0.000;0.000;2022-07-29T06:46:34;8.25;;;3.78;;
44636;SDS011;30343;0.000;0.000;2022-07-29T06:49:22;4.88;;;3.20;;
44636;SDS011;30343;0.000;0.000;2022-07-29T06:52:07;5.78;;;3.17;;
44636;SDS011;30343;0.000;0.000;2022-07-29T06:54:51;6.18;;;4.00;;
44636;SDS011;30343;0.000;0.000;2022-07-29T06:57:35;8.27;;;3.38;;
44636;SDS011;30343;0.000;0.000;2022-07-29T07:00:19;5.30;;;3.20;;
44636;SDS011;30343;0.000;0.000;2022-07-29T07:03:03;9.48;;;4.03;;
44636;SDS011;30343;0.000;0.000;2022-07-29T07:05:47;4.82;;;3.70;;
44636;SDS011;30343;0.000;0.000;2022-07-29T07:08:37;8.07;;;3.65;;
44636;SDS011;30343;0.000;0.000;2022-07-29T07:11:27;4.70;;;3.53;;
44636;SDS011;30343;0.000;0.000;2022-07-29T07:14:11;6.65;;;3.53;;
44636;SDS011;30343;0.000;0.000;2022-07-29T07:16:55;8.68;;;3.33;;
44636;SDS011;30343;0.000;0.000;2022-07-29T07:19:39;8.50;;;3.20;;
44636;SDS011;30343;0.000;0.000;2022-07-29T07:22:26;4.65;;;3.17;;
44636;SDS011;30343;0.000;0.000;2022-07-29T07:25:11;9.40;;;3.83;;
44636;SDS011;30343;0.000;0.000;2022-07-29T07:28:01;7.97;;;3.80;;
44636;SDS011;30343;0.000;0.000;2022-07-29T07:30:48;10.55;;;3.25;;
44636;SDS011;30343;0.000;0.000;2022-07-29T07:33:35;7.90;;;3.75;;
44636;SDS011;30343;0.000;0.000;2022-07-29T07:36:19;6.68;;;3.90;;
44636;SDS011;30343;0.000;0.000;2022-07-29T07:39:03;8.70;;;4.18;;
44636;SDS011;30343;0.000;0.000;2022-07-29T07:41:52;9.50;;;4.65;;
44636;SDS011;30343;0.000;0.000;2022-07-29T07:44:39;9.35;;;3.70;;
44636;SDS011;30343;0.000;0.000;2022-07-29T07:47:23;9.52;;;4.40;;
44636;SDS011;30343;0.000;0.000;2022-07-29T07:50:11;7.38;;;3.85;;
44636;SDS011;30343;0.000;0.000;2022-07-29T07:52:58;7.25;;;3.67;;
44636;SDS011;30343;0.000;0.000;2022-07-29T07:55:48;4.90;;;4.05;;
44636;SDS011;30343;0.000;0.000;2022-07-29T07:58:38;6.32;;;3.30;;
44636;SDS011;30343;0.000;0.000;2022-07-29T08:01:22;8.15;;;4.43;;
44636;SDS011;30343;0.000;0.000;2022-07-29T08:04:07;6.22;;;3.50;;
44636;SDS011;30343;0.000;0.000;2022-07-29T08:06:51;9.23;;;4.70;;
44636;SDS011;30343;0.000;0.000;2022-07-29T08:09:38;9.20;;;4.38;;
44636;SDS011;30343;0.000;0.000;2022-07-29T08:12:27;5.13;;;3.92;;
44636;SDS011;30343;0.000;0.000;2022-07-29T08:15:11;8.35;;;4.10;;
44636;SDS011;30343;0.000;0.000;2022-07-29T08:17:55;9.68;;;4.88;;
44636;SDS011;30343;0.000;0.000;2022-07-29T08:20:42;7.03;;;4.10;;
44636;SDS011;30343;0.000;0.000;2022-07-29T08:23:28;8.95;;;3.72;;
44636;SDS011;30343;0.000;0.000;2022-07-29T08:26:22;10.48;;;4.07;;
44636;SDS011;30343;0.000;0.000;2022-07-29T08:29:11;8.10;;;4.65;;
44636;SDS011;30343;0.000;0.000;2022-07-29T08:31:59;8.05;;;4.43;;
44636;SDS011;30343;0.000;0.000;2022-07-29T08:34:47;6.38;;;3.50;;
44636;SDS011;30343;0.000;0.000;2022-07-29T08:37:30;5.55;;;3.42;;
44636;SDS011;30343;0.000;0.000;2022-07-29T08:40:20;6.20;;;3.95;;
44636;SDS011;30343;0.000;0.000;2022-07-29T08:43:08;8.65;;;4.40;;
44636;SDS011;30343;0.000;0.000;2022-07-29T08:45:52;6.95;;;3.70;;
44636;SDS011;30343;0.000;0.000;2022-07-29T08:48:39;9.48;;;4.57;;
44636;SDS011;30343;0.000;0.000;2022-07-29T08:51:28;7.80;;;4.20;;
44636;SDS011;30343;0.000;0.000;2022-07-29T08:54:17;9.00;;;4.30;;
44636;SDS011;30343;0.000;0.000;2022-07-29T08:57:02;5.97;;;3.67;;
44636;SDS011;30343;0.000;0.000;2022-07-29T08:59:46;7.85;;;4.82;;
44636;SDS011;30343;0.000;0.000;2022-07-29T09:02:35;6.13;;;4.13;;
44636;SDS011;30343;0.000;0.000;2022-07-29T09:05:26;4.22;;;3.28;;
44636;SDS011;30343;0.000;0.000;2022-07-29T09:08:11;6.82;;;4.03;;
44636;SDS011;30343;0.000;0.000;2022-07-29T09:11:05;6.55;;;4.07;;
44636;SDS011;30343;0.000;0.000;2022-07-29T09:16:44;6.80;;;3.70;;
44636;SDS011;30343;0.000;0.000;2022-07-29T09:19:36;6.78;;;3.20;;
44636;SDS011;30343;0.000;0.000;2022-07-29T09:22:29;9.63;;;5.05;;
44636;SDS011;30343;0.000;0.000;2022-07-29T09:25:32;9.82;;;3.92;;
44636;SDS011;30343;0.000;0.000;2022-07-29T09:28:20;6.00;;;3.83;;
44636;SDS011;30343;0.000;0.000;2022-07-29T09:31:07;10.40;;;5.18;;
44636;SDS011;30343;0.000;0.000;2022-07-29T09:33:55;10.15;;;3.95;;
44636;SDS011;30343;0.000;0.000;2022-07-29T09:36:43;6.22;;;4.30;;
44636;SDS011;30343;0.000;0.000;2022-07-29T09:39:35;5.53;;;3.75;;
44636;SDS011;30343;0.000;0.000;2022-07-29T09:42:28;5.77;;;3.80;;
44636;SDS011;30343;0.000;0.000;2022-07-29T09:45:25;13.13;;;4.82;;
44636;SDS011;30343;0.000;0.000;2022-07-29T09:48:19;8.13;;;4.95;;
44636;SDS011;30343;0.000;0.000;2022-07-29T09:51:05;5.50;;;4.20;;
44636;SDS011;30343;0.000;0.000;2022-07-29T09:53:54;8.80;;;4.00;;
44636;SDS011;30343;0.000;0.000;2022-07-29T09:56:43;8.18;;;4.68;;
44636;SDS011;30343;0.000;0.000;2022-07-29T09:59:27;7.32;;;5.47;;
44636;SDS011;30343;0.000;0.000;2022-07-29T10:02:17;8.60;;;4.97;;
44636;SDS011;30343;0.000;0.000;2022-07-29T10:05:03;10.95;;;4.95;;
44636;SDS011;30343;0.000;0.000;2022-07-29T10:07:55;8.38;;;4.60;;
44636;SDS011;30343;0.000;0.000;2022-07-29T10:10:45;8.32;;;4.80;;
44636;SDS011;30343;0.000;0.000;2022-07-29T10:13:32;7.45;;;4.30;;
44636;SDS011;30343;0.000;0.000;2022-07-29T10:16:19;10.45;;;4.57;;
44636;SDS011;30343;0.000;0.000;2022-07-29T10:19:03;6.72;;;5.03;;
44636;SDS011;30343;0.000;0.000;2022-07-29T10:21:47;10.20;;;4.85;;
44636;SDS011;30343;0.000;0.000;2022-07-29T10:24:31;6.72;;;4.40;;
44636;SDS011;30343;0.000;0.000;2022-07-29T10:27:21;8.07;;;5.57;;
44636;SDS011;30343;0.000;0.000;2022-07-29T10:30:08;5.78;;;4.30;;
44636;SDS011;30343;0.000;0.000;2022-07-29T10:36:12;8.45;;;5.00;;
44636;SDS011;30343;0.000;0.000;2022-07-29T10:39:15;8.70;;;5.68;;
44636;SDS011;30343;0.000;0.000;2022-07-29T10:42:13;7.45;;;4.53;;
44636;SDS011;30343;0.000;0.000;2022-07-29T10:45:02;8.63;;;4.70;;
44636;SDS011;30343;0.000;0.000;2022-07-29T10:47:47;7.57;;;4.90;;
44636;SDS011;30343;0.000;0.000;2022-07-29T10:53:49;8.02;;;5.13;;
44636;SDS011;30343;0.000;0.000;2022-07-29T10:56:35;6.22;;;4.78;;
44636;SDS011;30343;0.000;0.000;2022-07-29T10:59:24;8.48;;;4.57;;
44636;SDS011;30343;0.000;0.000;2022-07-29T11:02:55;7.78;;;4.80;;
44636;SDS011;30343;0.000;0.000;2022-07-29T11:05:20;8.68;;;4.75;;
44636;SDS011;30343;0.000;0.000;2022-07-29T11:14:04;6.65;;;4.68;;
44636;SDS011;30343;0.000;0.000;2022-07-29T11:19:45;7.22;;;4.05;;
44636;SDS011;30343;0.000;0.000;2022-07-29T11:22:33;5.07;;;4.28;;
44636;SDS011;30343;0.000;0.000;2022-07-29T11:25:18;5.18;;;3.80;;
44636;SDS011;30343;0.000;0.000;2022-07-29T11:28:10;7.45;;;4.63;;
44636;SDS011;30343;0.000;0.000;2022-07-29T11:30:59;7.78;;;3.58;;
44636;SDS011;30343;0.000;0.000;2022-07-29T11:33:44;7.00;;;4.50;;
44636;SDS011;30343;0.000;0.000;2022-07-29T11:36:28;8.23;;;4.65;;
44636;SDS011;30343;0.000;0.000;2022-07-29T11:39:25;11.90;;;3.92;;
44636;SDS011;30343;0.000;0.000;2022-07-29T11:45:10;7.90;;;4.47;;
44636;SDS011;30343;0.000;0.000;2022-07-29T11:48:00;7.68;;;4.65;;
44636;SDS011;30343;0.000;0.000;2022-07-29T11:50:44;12.35;;;4.93;;
44636;SDS011;30343;0.000;0.000;2022-07-29T11:53:31;6.93;;;4.55;;
44636;SDS011;30343;0.000;0.000;2022-07-29T11:56:15;6.40;;;3.80;;
44636;SDS011;30343;0.000;0.000;2022-07-29T11:59:04;5.07;;;3.17;;
44636;SDS011;30343;0.000;0.000;2022-07-29T12:01:53;6.03;;;3.13;;
44636;SDS011;30343;0.000;0.000;2022-07-29T12:07:38;4.82;;;2.97;;
44636;SDS011;30343;0.000;0.000;2022-07-29T12:10:23;6.07;;;3.38;;
44636;SDS011;30343;0.000;0.000;2022-07-29T12:13:15;5.53;;;3.60;;
44636;SDS011;30343;0.000;0.000;2022-07-29T12:16:04;5.68;;;3.03;;
44636;SDS011;30343;0.000;0.000;2022-07-29T12:19:00;8.73;;;3.42;;
44636;SDS011;30343;0.000;0.000;2022-07-29T12:21:55;3.47;;;2.63;;
44636;SDS011;30343;0.000;0.000;2022-07-29T12:24:45;5.97;;;2.65;;
44636;SDS011;30343;0.000;0.000;2022-07-29T12:27:29;4.00;;;2.58;;
44636;SDS011;30343;0.000;0.000;2022-07-29T12:30:14;6.90;;;3.20;;
44636;SDS011;30343;0.000;0.000;2022-07-29T12:32:59;6.20;;;3.05;;
44636;SDS011;30343;0.000;0.000;2022-07-29T12:35:44;4.43;;;3.67;;
44636;SDS011;30343;0.000;0.000;2022-07-29T12:38:34;7.18;;;3.25;;
44636;SDS011;30343;0.000;0.000;2022-07-29T12:41:19;12.20;;;3.67;;
44636;SDS011;30343;0.000;0.000;2022-07-29T12:44:03;7.90;;;3.33;;
44636;SDS011;30343;0.000;0.000;2022-07-29T12:47:03;6.07;;;3.67;;
44636;SDS011;30343;0.000;0.000;2022-07-29T12:49:47;12.95;;;4.47;;
44636;SDS011;30343;0.000;0.000;2022-07-29T12:52:33;14.07;;;4.90;;
44636;SDS011;30343;0.000;0.000;2022-07-29T13:01:16;8.23;;;3.90;;
44636;SDS011;30343;0.000;0.000;2022-07-29T13:04:03;4.20;;;3.35;;
44636;SDS011;30343;0.000;0.000;2022-07-29T13:06:50;7.07;;;3.60;;
44636;SDS011;30343;0.000;0.000;2022-07-29T13:09:53;9.07;;;4.18;;
44636;SDS011;30343;0.000;0.000;2022-07-29T13:12:40;4.90;;;2.90;;
44636;SDS011;30343;0.000;0.000;2022-07-29T13:16:05;3.65;;;3.08;;
44636;SDS011;30343;0.000;0.000;2022-07-29T13:19:04;4.60;;;3.10;;
44636;SDS011;30343;0.000;0.000;2022-07-29T13:21:48;3.55;;;2.60;;
44636;SDS011;30343;0.000;0.000;2022-07-29T13:24:48;6.07;;;3.53;;
44636;SDS011;30343;0.000;0.000;2022-07-29T13:27:34;4.43;;;2.90;;
44636;SDS011;30343;0.000;0.000;2022-07-29T13:30:23;5.30;;;2.80;;
44636;SDS011;30343;0.000;0.000;2022-07-29T13:33:08;5.53;;;2.60;;
44636;SDS011;30343;0.000;0.000;2022-07-29T13:35:54;4.80;;;3.10;;
44636;SDS011;30343;0.000;0.000;2022-07-29T13:38:39;6.03;;;2.85;;
44636;SDS011;30343;0.000;0.000;2022-07-29T13:41:25;5.30;;;2.58;;
44636;SDS011;30343;0.000;0.000;2022-07-29T13:44:12;5.88;;;3.05;;
44636;SDS011;30343;0.000;0.000;2022-07-29T13:46:56;3.60;;;2.70;;
44636;SDS011;30343;0.000;0.000;2022-07-29T13:49:42;4.18;;;3.08;;
44636;SDS011;30343;0.000;0.000;2022-07-29T13:52:27;4.95;;;3.00;;
44636;SDS011;30343;0.000;0.000;2022-07-29T13:55:14;7.70;;;3.10;;
44636;SDS011;30343;0.000;0.000;2022-07-29T13:57:58;4.55;;;2.97;;
44636;SDS011;30343;0.000;0.000;2022-07-29T14:00:41;4.43;;;2.60;;
44636;SDS011;30343;0.000;0.000;2022-07-29T14:03:25;3.42;;;2.65;;
44636;SDS011;30343;0.000;0.000;2022-07-29T14:06:09;3.80;;;2.47;;
44636;SDS011;30343;0.000;0.000;2022-07-29T14:08:54;6.35;;;2.63;;
44636;SDS011;30343;0.000;0.000;2022-07-29T14:11:38;5.18;;;2.90;;
44636;SDS011;30343;0.000;0.000;2022-07-29T14:14:23;4.85;;;2.72;;
44636;SDS011;30343;0.000;0.000;2022-07-29T14:17:09;4.68;;;3.08;;
44636;SDS011;30343;0.000;0.000;2022-07-29T14:19:54;5.25;;;2.60;;
44636;SDS011;30343;0.000;0.000;2022-07-29T14:22:38;8.95;;;3.33;;
44636;SDS011;30343;0.000;0.000;2022-07-29T14:25:27;6.53;;;2.78;;
44636;SDS011;30343;0.000;0.000;2022-07-29T14:28:15;4.88;;;2.90;;
44636;SDS011;30343;0.000;0.000;2022-07-29T14:30:59;5.18;;;3.17;;
44636;SDS011;30343;0.000;0.000;2022-07-29T14:33:48;4.13;;;2.80;;
44636;SDS011;30343;0.000;0.000;2022-07-29T14:36:35;4.40;;;2.90;;
44636;SDS011;30343;0.000;0.000;2022-07-29T14:39:22;3.45;;;2.90;;
44636;SDS011;30343;0.000;0.000;2022-07-29T14:42:09;3.47;;;2.60;;
44636;SDS011;30343;0.000;0.000;2022-07-29T14:44:54;5.97;;;2.47;;
44636;SDS011;30343;0.000;0.000;2022-07-29T14:47:41;5.53;;;3.10;;
44636;SDS011;30343;0.000;0.000;2022-07-29T14:50:25;4.30;;;2.55;;
44636;SDS011;30343;0.000;0.000;2022-07-29T14:53:10;4.88;;;2.70;;
44636;SDS011;30343;0.000;0.000;2022-07-29T14:55:55;4.47;;;2.65;;
44636;SDS011;30343;0.000;0.000;2022-07-29T14:58:39;3.28;;;2.63;;
44636;SDS011;30343;0.000;0.000;2022-07-29T15:01:23;6.72;;;2.67;;
44636;SDS011;30343;0.000;0.000;2022-07-29T15:04:08;5.43;;;2.58;;
44636;SDS011;30343;0.000;0.000;2022-07-29T15:06:52;10.35;;;2.55;;
44636;SDS011;30343;0.000;0.000;2022-07-29T15:09:36;3.75;;;2.78;;
44636;SDS011;30343;0.000;0.000;2022-07-29T15:12:21;5.35;;;3.30;;
44636;SDS011;30343;0.000;0.000;2022-07-29T15:15:07;3.78;;;2.47;;
44636;SDS011;30343;0.000;0.000;2022-07-29T15:17:52;3.60;;;2.55;;
44636;SDS011;30343;0.000;0.000;2022-07-29T15:20:38;5.03;;;2.58;;
44636;SDS011;30343;0.000;0.000;2022-07-29T15:23:22;4.18;;;2.70;;
44636;SDS011;30343;0.000;0.000;2022-07-29T15:26:09;4.70;;;2.83;;
44636;SDS011;30343;0.000;0.000;2022-07-29T15:28:53;2.80;;;2.50;;
44636;SDS011;30343;0.000;0.000;2022-07-29T15:31:39;4.95;;;2.80;;
44636;SDS011;30343;0.000;0.000;2022-07-29T15:34:24;4.60;;;2.67;;
44636;SDS011;30343;0.000;0.000;2022-07-29T15:37:08;5.35;;;2.72;;
44636;SDS011;30343;0.000;0.000;2022-07-29T15:39:57;2.45;;;2.22;;
44636;SDS011;30343;0.000;0.000;2022-07-29T15:42:41;5.72;;;2.15;;
44636;SDS011;30343;0.000;0.000;2022-07-29T15:45:25;7.10;;;2.58;;
44636;SDS011;30343;0.000;0.000;2022-07-29T15:48:09;4.10;;;2.53;;
44636;SDS011;30343;0.000;0.000;2022-07-29T15:50:54;6.63;;;2.30;;
44636;SDS011;30343;0.000;0.000;2022-07-29T15:53:39;4.40;;;2.88;;
44636;SDS011;30343;0.000;0.000;2022-07-29T15:56:23;7.22;;;2.60;;
44636;SDS011;30343;0.000;0.000;2022-07-29T15:59:07;5.18;;;2.58;;
44636;SDS011;30343;0.000;0.000;2022-07-29T16:01:51;5.60;;;2.40;;
44636;SDS011;30343;0.000;0.000;2022-07-29T16:04:35;4.90;;;2.58;;
44636;SDS011;30343;0.000;0.000;2022-07-29T16:07:19;3.38;;;2.70;;
44636;SDS011;30343;0.000;0.000;2022-07-29T16:10:03;3.42;;;2.40;;
44636;SDS011;30343;0.000;0.000;2022-07-29T16:12:47;3.35;;;2.30;;
44636;SDS011;30343;0.000;0.000;2022-07-29T16:15:31;4.75;;;2.58;;
44636;SDS011;30343;0.000;0.000;2022-07-29T16:18:16;5.25;;;2.40;;
44636;SDS011;30343;0.000;0.000;2022-07-29T16:21:00;4.05;;;2.25;;
44636;SDS011;30343;0.000;0.000;2022-07-29T16:23:47;4.97;;;2.47;;
44636;SDS011;30343;0.000;0.000;2022-07-29T16:26:32;3.90;;;2.20;;
44636;SDS011;30343;0.000;0.000;2022-07-29T16:29:16;6.65;;;2.58;;
44636;SDS011;30343;0.000;0.000;2022-07-29T16:32:04;4.88;;;2.45;;
44636;SDS011;30343;0.000;0.000;2022-07-29T16:34:52;3.90;;;2.08;;
44636;SDS011;30343;0.000;0.000;2022-07-29T16:37:39;4.05;;;2.20;;
44636;SDS011;30343;0.000;0.000;2022-07-29T16:40:23;6.40;;;2.35;;
44636;SDS011;30343;0.000;0.000;2022-07-29T16:43:09;3.47;;;2.63;;
44636;SDS011;30343;0.000;0.000;2022-07-29T16:45:56;4.18;;;2.33;;
44636;SDS011;30343;0.000;0.000;2022-07-29T16:48:40;3.78;;;2.20;;
44636;SDS011;30343;0.000;0.000;2022-07-29T16:51:30;3.15;;;2.03;;
44636;SDS011;30343;0.000;0.000;2022-07-29T16:54:18;5.63;;;2.80;;
44636;SDS011;30343;0.000;0.000;2022-07-29T16:57:02;7.03;;;2.35;;
44636;SDS011;30343;0.000;0.000;2022-07-29T16:59:48;4.45;;;2.58;;
44636;SDS011;30343;0.000;0.000;2022-07-29T17:02:34;8.98;;;3.63;;
44636;SDS011;30343;0.000;0.000;2022-07-29T17:05:21;6.75;;;2.42;;
44636;SDS011;30343;0.000;0.000;2022-07-29T17:08:07;5.35;;;2.78;;
44636;SDS011;30343;0.000;0.000;2022-07-29T17:10:51;6.97;;;2.85;;
44636;SDS011;30343;0.000;0.000;2022-07-29T17:13:38;10.00;;;3.08;;
44636;SDS011;30343;0.000;0.000;2022-07-29T17:16:26;4.07;;;2.30;;
44636;SDS011;30343;0.000;0.000;2022-07-29T17:19:11;3.72;;;2.70;;
44636;SDS011;30343;0.000;0.000;2022-07-29T17:21:55;3.60;;;2.50;;
44636;SDS011;30343;0.000;0.000;2022-07-29T17:24:39;3.72;;;2.22;;
44636;SDS011;30343;0.000;0.000;2022-07-29T17:27:24;3.58;;;2.35;;
44636;SDS011;30343;0.000;0.000;2022-07-29T17:30:10;5.72;;;2.40;;
44636;SDS011;30343;0.000;0.000;2022-07-29T17:32:55;5.90;;;2.78;;
44636;SDS011;30343;0.000;0.000;2022-07-29T17:35:39;3.72;;;2.60;;
44636;SDS011;30343;0.000;0.000;2022-07-29T17:38:42;5.90;;;2.30;;
44636;SDS011;30343;0.000;0.000;2022-07-29T17:41:29;4.88;;;2.15;;
44636;SDS011;30343;0.000;0.000;2022-07-29T17:44:13;3.47;;;2.60;;
44636;SDS011;30343;0.000;0.000;2022-07-29T17:46:57;2.97;;;2.17;;
44636;SDS011;30343;0.000;0.000;2022-07-29T17:49:41;4.53;;;2.55;;
44636;SDS011;30343;0.000;0.000;2022-07-29T17:52:25;5.60;;;2.45;;